Terminal Aerodrome Forecast
Issued by NWS

Home | Current Version | Previous Version | Text Only | Print | Product List | Glossary Off
Versions: 1 2 3 4 5 6 7 8 9 10 11 12 13 14 15 16 17

000
FTUS44 KTSA 191700
TAFBVO
TAF
KBVO 191733Z 1918/2018 19011G21KT P6SM SCT250
     FM200000 18004KT P6SM BKN200
     FM201600 18010G16KT P6SM SCT045 OVC140=

USA.gov is the U.S. government's official web portal to all federal, state and local government web resources and services.